sensor_id;sensor_type;location;lat;lon;timestamp;pressure;altitude;pressure_sealevel;temperature
78225;BMP280;67498;53.650;10.090;2023-12-04T00:00:58;101731.28;;;-1.60
78225;BMP280;67498;53.650;10.090;2023-12-04T00:03:24;101745.53;;;-1.54
78225;BMP280;67498;53.650;10.090;2023-12-04T00:05:49;101738.31;;;-1.52
78225;BMP280;67498;53.650;10.090;2023-12-04T00:08:14;101740.88;;;-1.52
78225;BMP280;67498;53.650;10.090;2023-12-04T00:10:40;101739.09;;;-1.51
78225;BMP280;67498;53.650;10.090;2023-12-04T00:13:05;101726.66;;;-1.58
78225;BMP280;67498;53.650;10.090;2023-12-04T00:15:30;101722.28;;;-1.57
78225;BMP280;67498;53.650;10.090;2023-12-04T00:17:55;101726.38;;;-1.56
78225;BMP280;67498;53.650;10.090;2023-12-04T00:20:20;101717.78;;;-1.65
78225;BMP280;67498;53.650;10.090;2023-12-04T00:22:46;101720.34;;;-1.65
78225;BMP280;67498;53.650;10.090;2023-12-04T00:25:11;101723.13;;;-1.62
78225;BMP280;67498;53.650;10.090;2023-12-04T00:27:36;101720.84;;;-1.63
78225;BMP280;67498;53.650;10.090;2023-12-04T00:30:02;101719.34;;;-1.64
78225;BMP280;67498;53.650;10.090;2023-12-04T00:32:29;101716.28;;;-1.66
78225;BMP280;67498;53.650;10.090;2023-12-04T00:34:54;101705.16;;;-1.76
78225;BMP280;67498;53.650;10.090;2023-12-04T00:37:19;101716.06;;;-1.70
78225;BMP280;67498;53.650;10.090;2023-12-04T00:39:44;101723.00;;;-1.71
78225;BMP280;67498;53.650;10.090;2023-12-04T00:42:10;101709.78;;;-1.78
78225;BMP280;67498;53.650;10.090;2023-12-04T00:44:35;101703.91;;;-1.78
78225;BMP280;67498;53.650;10.090;2023-12-04T00:47:00;101706.75;;;-1.80
78225;BMP280;67498;53.650;10.090;2023-12-04T00:49:25;101718.25;;;-1.77
78225;BMP280;67498;53.650;10.090;2023-12-04T00:51:51;101709.88;;;-1.83
78225;BMP280;67498;53.650;10.090;2023-12-04T00:54:16;101707.88;;;-1.86
78225;BMP280;67498;53.650;10.090;2023-12-04T00:56:41;101720.09;;;-1.83
78225;BMP280;67498;53.650;10.090;2023-12-04T00:59:10;101713.97;;;-1.82
78225;BMP280;67498;53.650;10.090;2023-12-04T01:01:36;101708.34;;;-1.84
78225;BMP280;67498;53.650;10.090;2023-12-04T01:04:02;101696.94;;;-1.92
78225;BMP280;67498;53.650;10.090;2023-12-04T01:06:27;101707.13;;;-1.86
78225;BMP280;67498;53.650;10.090;2023-12-04T01:08:54;101712.25;;;-1.86
78225;BMP280;67498;53.650;10.090;2023-12-04T01:11:19;101694.91;;;-1.95
78225;BMP280;67498;53.650;10.090;2023-12-04T01:13:45;101692.34;;;-1.95
78225;BMP280;67498;53.650;10.090;2023-12-04T01:16:10;101684.97;;;-1.96
78225;BMP280;67498;53.650;10.090;2023-12-04T01:18:35;101695.63;;;-1.89
78225;BMP280;67498;53.650;10.090;2023-12-04T01:21:01;101691.34;;;-1.94
78225;BMP280;67498;53.650;10.090;2023-12-04T01:23:26;101692.34;;;-1.95
78225;BMP280;67498;53.650;10.090;2023-12-04T01:25:51;101675.09;;;-2.03
78225;BMP280;67498;53.650;10.090;2023-12-04T01:28:16;101667.69;;;-2.04
78225;BMP280;67498;53.650;10.090;2023-12-04T01:30:42;101680.38;;;-1.99
78225;BMP280;67498;53.650;10.090;2023-12-04T01:33:07;101686.56;;;-2.00
78225;BMP280;67498;53.650;10.090;2023-12-04T01:35:33;101687.13;;;-2.03
78225;BMP280;67498;53.650;10.090;2023-12-04T01:37:58;101686.34;;;-2.04
78225;BMP280;67498;53.650;10.090;2023-12-04T01:40:24;101692.50;;;-2.05
78225;BMP280;67498;53.650;10.090;2023-12-04T01:42:49;101679.22;;;-2.07
78225;BMP280;67498;53.650;10.090;2023-12-04T01:45:14;101679.50;;;-2.08
78225;BMP280;67498;53.650;10.090;2023-12-04T01:47:40;101667.56;;;-2.13
78225;BMP280;67498;53.650;10.090;2023-12-04T01:50:06;101667.00;;;-2.10
78225;BMP280;67498;53.650;10.090;2023-12-04T01:52:32;101660.44;;;-2.16
78225;BMP280;67498;53.650;10.090;2023-12-04T01:54:58;101668.31;;;-2.13
78225;BMP280;67498;53.650;10.090;2023-12-04T01:57:23;101661.97;;;-2.15
78225;BMP280;67498;53.650;10.090;2023-12-04T01:59:49;101662.97;;;-2.16
78225;BMP280;67498;53.650;10.090;2023-12-04T02:02:14;101657.38;;;-2.18
78225;BMP280;67498;53.650;10.090;2023-12-04T02:04:40;101654.63;;;-2.22
78225;BMP280;67498;53.650;10.090;2023-12-04T02:07:05;101648.63;;;-2.31
78225;BMP280;67498;53.650;10.090;2023-12-04T02:09:30;101652.91;;;-2.26
78225;BMP280;67498;53.650;10.090;2023-12-04T02:11:56;101646.59;;;-2.34
78225;BMP280;67498;53.650;10.090;2023-12-04T02:14:22;101643.53;;;-2.36
78225;BMP280;67498;53.650;10.090;2023-12-04T02:16:47;101652.69;;;-2.30
78225;BMP280;67498;53.650;10.090;2023-12-04T02:19:13;101642.75;;;-2.31
78225;BMP280;67498;53.650;10.090;2023-12-04T02:21:39;101633.06;;;-2.35
78225;BMP280;67498;53.650;10.090;2023-12-04T02:24:05;101639.16;;;-2.30
78225;BMP280;67498;53.650;10.090;2023-12-04T02:26:44;101626.41;;;-2.36
78225;BMP280;67498;53.650;10.090;2023-12-04T02:29:14;101623.84;;;-2.36
78225;BMP280;67498;53.650;10.090;2023-12-04T02:31:41;101627.91;;;-2.29
78225;BMP280;67498;53.650;10.090;2023-12-04T02:34:08;101614.38;;;-2.35
78225;BMP280;67498;53.650;10.090;2023-12-04T02:36:35;101620.22;;;-2.29
78225;BMP280;67498;53.650;10.090;2023-12-04T02:39:01;101612.88;;;-2.36
78225;BMP280;67498;53.650;10.090;2023-12-04T02:41:27;101609.56;;;-2.37
78225;BMP280;67498;53.650;10.090;2023-12-04T02:43:52;101615.41;;;-2.36
78225;BMP280;67498;53.650;10.090;2023-12-04T02:46:18;101612.13;;;-2.37
78225;BMP280;67498;53.650;10.090;2023-12-04T02:48:43;101609.56;;;-2.37
78225;BMP280;67498;53.650;10.090;2023-12-04T02:51:10;101612.13;;;-2.37
78225;BMP280;67498;53.650;10.090;2023-12-04T02:53:35;101601.97;;;-2.42
78225;BMP280;67498;53.650;10.090;2023-12-04T02:56:00;101605.47;;;-2.38
78225;BMP280;67498;53.650;10.090;2023-12-04T02:58:25;101593.81;;;-2.44
78225;BMP280;67498;53.650;10.090;2023-12-04T03:00:51;101590.19;;;-2.43
78225;BMP280;67498;53.650;10.090;2023-12-04T03:03:16;101580.25;;;-2.44
78225;BMP280;67498;53.650;10.090;2023-12-04T03:05:41;101576.53;;;-2.52
78225;BMP280;67498;53.650;10.090;2023-12-04T03:08:06;101570.88;;;-2.49
78225;BMP280;67498;53.650;10.090;2023-12-04T03:10:32;101568.59;;;-2.50
78225;BMP280;67498;53.650;10.090;2023-12-04T03:12:57;101572.56;;;-2.44
78225;BMP280;67498;53.650;10.090;2023-12-04T03:15:22;101561.41;;;-2.48
78225;BMP280;67498;53.650;10.090;2023-12-04T03:17:48;101567.19;;;-2.43
78225;BMP280;67498;53.650;10.090;2023-12-04T03:20:13;101555.25;;;-2.47
78225;BMP280;67498;53.650;10.090;2023-12-04T03:22:38;101557.06;;;-2.48
78225;BMP280;67498;53.650;10.090;2023-12-04T03:25:04;101566.44;;;-2.43
78225;BMP280;67498;53.650;10.090;2023-12-04T03:27:29;101549.13;;;-2.46
78225;BMP280;67498;53.650;10.090;2023-12-04T03:29:55;101554.41;;;-2.43
78225;BMP280;67498;53.650;10.090;2023-12-04T03:32:20;101543.53;;;-2.48
78225;BMP280;67498;53.650;10.090;2023-12-04T03:34:45;101552.13;;;-2.44
78225;BMP280;67498;53.650;10.090;2023-12-04T03:37:10;101546.00;;;-2.43
78225;BMP280;67498;53.650;10.090;2023-12-04T03:39:36;101539.91;;;-2.47
78225;BMP280;67498;53.650;10.090;2023-12-04T03:42:01;101534.03;;;-2.48
78225;BMP280;67498;53.650;10.090;2023-12-04T03:44:27;101532.53;;;-2.49
78225;BMP280;67498;53.650;10.090;2023-12-04T03:46:53;101518.72;;;-2.48
78225;BMP280;67498;53.650;10.090;2023-12-04T03:49:18;101514.34;;;-2.47
78225;BMP280;67498;53.650;10.090;2023-12-04T03:51:43;101514.28;;;-2.42
78225;BMP280;67498;53.650;10.090;2023-12-04T03:54:08;101511.72;;;-2.42
78225;BMP280;67498;53.650;10.090;2023-12-04T03:56:33;101510.22;;;-2.43
78225;BMP280;67498;53.650;10.090;2023-12-04T03:58:59;101491.91;;;-2.50
78225;BMP280;67498;53.650;10.090;2023-12-04T04:01:24;101498.75;;;-2.46
78225;BMP280;67498;53.650;10.090;2023-12-04T04:03:49;101493.44;;;-2.49
78225;BMP280;67498;53.650;10.090;2023-12-04T04:06:15;101493.03;;;-2.57
78225;BMP280;67498;53.650;10.090;2023-12-04T04:08:40;101490.38;;;-2.51
78225;BMP280;67498;53.650;10.090;2023-12-04T04:11:05;101482.53;;;-2.55
78225;BMP280;67498;53.650;10.090;2023-12-04T04:13:31;101485.84;;;-2.55
78225;BMP280;67498;53.650;10.090;2023-12-04T04:15:56;101473.41;;;-2.61
78225;BMP280;67498;53.650;10.090;2023-12-04T04:18:21;101462.72;;;-2.63
78225;BMP280;67498;53.650;10.090;2023-12-04T04:20:46;101464.72;;;-2.60
78225;BMP280;67498;53.650;10.090;2023-12-04T04:23:50;101454.28;;;-2.64
78225;BMP280;67498;53.650;10.090;2023-12-04T04:26:15;101458.28;;;-2.58
78225;BMP280;67498;53.650;10.090;2023-12-04T04:28:40;101439.00;;;-2.69
78225;BMP280;67498;53.650;10.090;2023-12-04T04:31:06;101442.88;;;-2.71
78225;BMP280;67498;53.650;10.090;2023-12-04T04:33:31;101459.88;;;-2.62
78225;BMP280;67498;53.650;10.090;2023-12-04T04:35:56;101457.06;;;-2.60
78225;BMP280;67498;53.650;10.090;2023-12-04T04:38:22;101458.66;;;-2.64
78225;BMP280;67498;53.650;10.090;2023-12-04T04:40:47;101457.31;;;-2.62
78225;BMP280;67498;53.650;10.090;2023-12-04T04:43:12;101454.78;;;-2.62
78225;BMP280;67498;53.650;10.090;2023-12-04T04:45:38;101460.59;;;-2.56
78225;BMP280;67498;53.650;10.090;2023-12-04T04:48:03;101455.47;;;-2.56
78225;BMP280;67498;53.650;10.090;2023-12-04T04:50:28;101457.38;;;-2.48
78225;BMP280;67498;53.650;10.090;2023-12-04T04:52:54;101456.81;;;-2.45
78225;BMP280;67498;53.650;10.090;2023-12-04T04:55:20;101446.31;;;-2.43
78225;BMP280;67498;53.650;10.090;2023-12-04T04:57:45;101454.38;;;-2.36
78225;BMP280;67498;53.650;10.090;2023-12-04T05:00:11;101437.81;;;-2.39
78225;BMP280;67498;53.650;10.090;2023-12-04T05:02:36;101435.91;;;-2.33
78225;BMP280;67498;53.650;10.090;2023-12-04T05:05:03;101442.19;;;-2.25
78225;BMP280;67498;53.650;10.090;2023-12-04T05:07:28;101423.06;;;-2.28
78225;BMP280;67498;53.650;10.090;2023-12-04T05:09:54;101425.72;;;-2.19
78225;BMP280;67498;53.650;10.090;2023-12-04T05:12:19;101417.84;;;-2.23
78225;BMP280;67498;53.650;10.090;2023-12-04T05:14:44;101428.19;;;-2.14
78225;BMP280;67498;53.650;10.090;2023-12-04T05:17:09;101425.47;;;-2.18
78225;BMP280;67498;53.650;10.090;2023-12-04T05:19:35;101431.72;;;-2.10
78225;BMP280;67498;53.650;10.090;2023-12-04T05:22:00;101427.06;;;-2.08
78225;BMP280;67498;53.650;10.090;2023-12-04T05:24:25;101410.03;;;-2.13
78225;BMP280;67498;53.650;10.090;2023-12-04T05:26:50;101418.56;;;-2.03
78225;BMP280;67498;53.650;10.090;2023-12-04T05:29:16;101414.19;;;-2.03
78225;BMP280;67498;53.650;10.090;2023-12-04T05:31:41;101404.53;;;-2.06
78225;BMP280;67498;53.650;10.090;2023-12-04T05:34:06;101412.88;;;-2.00
78225;BMP280;67498;53.650;10.090;2023-12-04T05:36:31;101410.03;;;-1.99
78225;BMP280;67498;53.650;10.090;2023-12-04T05:38:56;101407.53;;;-2.04
78225;BMP280;67498;53.650;10.090;2023-12-04T05:41:22;101412.88;;;-2.00
78225;BMP280;67498;53.650;10.090;2023-12-04T05:43:47;101398.38;;;-2.05
78225;BMP280;67498;53.650;10.090;2023-12-04T05:46:12;101410.31;;;-2.00
78225;BMP280;67498;53.650;10.090;2023-12-04T05:48:38;101400.84;;;-2.00
78225;BMP280;67498;53.650;10.090;2023-12-04T05:51:04;101397.63;;;-2.05
78225;BMP280;67498;53.650;10.090;2023-12-04T05:53:29;101398.09;;;-2.03
78225;BMP280;67498;53.650;10.090;2023-12-04T05:55:54;101402.06;;;-1.97
78225;BMP280;67498;53.650;10.090;2023-12-04T05:58:19;101393.16;;;-2.00
78225;BMP280;67498;53.650;10.090;2023-12-04T06:00:45;101399.69;;;-1.94
78225;BMP280;67498;53.650;10.090;2023-12-04T06:03:10;101384.47;;;-1.99
78225;BMP280;67498;53.650;10.090;2023-12-04T06:05:35;101388.25;;;-1.96
78225;BMP280;67498;53.650;10.090;2023-12-04T06:08:00;101398.84;;;-1.89
78225;BMP280;67498;53.650;10.090;2023-12-04T06:10:26;101385.28;;;-1.90
78225;BMP280;67498;53.650;10.090;2023-12-04T06:12:51;101383.50;;;-1.89
78225;BMP280;67498;53.650;10.090;2023-12-04T06:15:16;101383.22;;;-1.87
78225;BMP280;67498;53.650;10.090;2023-12-04T06:17:41;101374.03;;;-1.88
78225;BMP280;67498;53.650;10.090;2023-12-04T06:20:07;101381.69;;;-1.88
78225;BMP280;67498;53.650;10.090;2023-12-04T06:22:33;101372.72;;;-1.86
78225;BMP280;67498;53.650;10.090;2023-12-04T06:24:59;101372.25;;;-1.88
78225;BMP280;67498;53.650;10.090;2023-12-04T06:27:24;101381.69;;;-1.88
78225;BMP280;67498;53.650;10.090;2023-12-04T06:29:50;101370.44;;;-1.87
78225;BMP280;67498;53.650;10.090;2023-12-04T06:32:16;101364.16;;;-1.95
78225;BMP280;67498;53.650;10.090;2023-12-04T06:34:42;101358.31;;;-1.96
78225;BMP280;67498;53.650;10.090;2023-12-04T06:37:12;101365.38;;;-1.93
78225;BMP280;67498;53.650;10.090;2023-12-04T06:39:38;101371.47;;;-1.88
78225;BMP280;67498;53.650;10.090;2023-12-04T06:42:08;101366.91;;;-1.92
78225;BMP280;67498;53.650;10.090;2023-12-04T06:44:35;101352.22;;;-2.00
78225;BMP280;67498;53.650;10.090;2023-12-04T06:47:01;101358.09;;;-1.99
78225;BMP280;67498;53.650;10.090;2023-12-04T06:49:31;101358.09;;;-1.99
78225;BMP280;67498;53.650;10.090;2023-12-04T06:51:57;101356.78;;;-1.97
78225;BMP280;67498;53.650;10.090;2023-12-04T06:54:22;101358.19;;;-2.04
78225;BMP280;67498;53.650;10.090;2023-12-04T06:56:47;101355.38;;;-2.03
78225;BMP280;67498;53.650;10.090;2023-12-04T06:59:12;101370.41;;;-2.01
78225;BMP280;67498;53.650;10.090;2023-12-04T07:01:38;101370.25;;;-2.05
78225;BMP280;67498;53.650;10.090;2023-12-04T07:04:03;101360.00;;;-2.05
78225;BMP280;67498;53.650;10.090;2023-12-04T07:06:38;101363.03;;;-2.03
78225;BMP280;67498;53.650;10.090;2023-12-04T07:09:03;101358.50;;;-2.06
78225;BMP280;67498;53.650;10.090;2023-12-04T07:11:29;101356.03;;;-2.11
78225;BMP280;67498;53.650;10.090;2023-12-04T07:13:54;101358.31;;;-2.09
78225;BMP280;67498;53.650;10.090;2023-12-04T07:16:20;101357.66;;;-2.15
78225;BMP280;67498;53.650;10.090;2023-12-04T07:18:45;101365.50;;;-2.12
78225;BMP280;67498;53.650;10.090;2023-12-04T07:21:11;101349.50;;;-2.17
78225;BMP280;67498;53.650;10.090;2023-12-04T07:23:36;101356.03;;;-2.11
78225;BMP280;67498;53.650;10.090;2023-12-04T07:26:01;101344.09;;;-2.16
78225;BMP280;67498;53.650;10.090;2023-12-04T07:28:27;101356.81;;;-2.10
78225;BMP280;67498;53.650;10.090;2023-12-04T07:30:54;101343.66;;;-2.18
78225;BMP280;67498;53.650;10.090;2023-12-04T07:33:19;101344.03;;;-2.10
78225;BMP280;67498;53.650;10.090;2023-12-04T07:35:44;101327.81;;;-2.20
78225;BMP280;67498;53.650;10.090;2023-12-04T07:38:10;101351.38;;;-2.09
78225;BMP280;67498;53.650;10.090;2023-12-04T07:40:35;101347.03;;;-2.08
78225;BMP280;67498;53.650;10.090;2023-12-04T07:43:00;101331.78;;;-2.14
78225;BMP280;67498;53.650;10.090;2023-12-04T07:45:25;101330.75;;;-2.13
78225;BMP280;67498;53.650;10.090;2023-12-04T07:47:52;101336.63;;;-2.12
78225;BMP280;67498;53.650;10.090;2023-12-04T07:50:17;101335.88;;;-2.13
78225;BMP280;67498;53.650;10.090;2023-12-04T07:52:42;101328.94;;;-2.12
78225;BMP280;67498;53.650;10.090;2023-12-04T07:55:08;101340.03;;;-2.03
78225;BMP280;67498;53.650;10.090;2023-12-04T07:57:33;101336.72;;;-2.03
78225;BMP280;67498;53.650;10.090;2023-12-04T07:59:58;101323.44;;;-2.05
78225;BMP280;67498;53.650;10.090;2023-12-04T08:02:23;101318.63;;;-2.07
78225;BMP280;67498;53.650;10.090;2023-12-04T08:04:49;101331.19;;;-1.97
78225;BMP280;67498;53.650;10.090;2023-12-04T08:07:14;101333.75;;;-1.97
78225;BMP280;67498;53.650;10.090;2023-12-04T08:09:40;101322.00;;;-1.98
78225;BMP280;67498;53.650;10.090;2023-12-04T08:12:06;101319.34;;;-1.93
78225;BMP280;67498;53.650;10.090;2023-12-04T08:14:31;101318.31;;;-1.92
78225;BMP280;67498;53.650;10.090;2023-12-04T08:16:58;101317.47;;;-1.87
78225;BMP280;67498;53.650;10.090;2023-12-04T08:19:23;101314.81;;;-1.82
78225;BMP280;67498;53.650;10.090;2023-12-04T08:21:48;101313.50;;;-1.79
78225;BMP280;67498;53.650;10.090;2023-12-04T08:24:14;101295.84;;;-1.81
78225;BMP280;67498;53.650;10.090;2023-12-04T08:26:41;101306.91;;;-1.72
78225;BMP280;67498;53.650;10.090;2023-12-04T08:29:06;101312.50;;;-1.70
78225;BMP280;67498;53.650;10.090;2023-12-04T08:31:32;101315.22;;;-1.66
78225;BMP280;67498;53.650;10.090;2023-12-04T08:33:57;101310.59;;;-1.64
78225;BMP280;67498;53.650;10.090;2023-12-04T08:36:23;101297.91;;;-1.69
78225;BMP280;67498;53.650;10.090;2023-12-04T08:38:48;101303.38;;;-1.62
78225;BMP280;67498;53.650;10.090;2023-12-04T08:41:13;101299.88;;;-1.66
78225;BMP280;67498;53.650;10.090;2023-12-04T08:43:38;101293.72;;;-1.65
78225;BMP280;67498;53.650;10.090;2023-12-04T08:46:04;101315.47;;;-1.54
78225;BMP280;67498;53.650;10.090;2023-12-04T08:48:29;101311.41;;;-1.55
78225;BMP280;67498;53.650;10.090;2023-12-04T08:50:55;101314.91;;;-1.51
78225;BMP280;67498;53.650;10.090;2023-12-04T08:53:20;101304.50;;;-1.54
78225;BMP280;67498;53.650;10.090;2023-12-04T08:55:46;101313.25;;;-1.46
78225;BMP280;67498;53.650;10.090;2023-12-04T08:58:12;101309.59;;;-1.54
78225;BMP280;67498;53.650;10.090;2023-12-04T09:00:37;101310.06;;;-1.52
78225;BMP280;67498;53.650;10.090;2023-12-04T09:03:07;101303.91;;;-1.51
78225;BMP280;67498;53.650;10.090;2023-12-04T09:05:33;101311.94;;;-1.44
78225;BMP280;67498;53.650;10.090;2023-12-04T09:07:58;101314.97;;;-1.42
78225;BMP280;67498;53.650;10.090;2023-12-04T09:10:23;101293.97;;;-1.53
78225;BMP280;67498;53.650;10.090;2023-12-04T09:12:48;101300.00;;;-1.49
78225;BMP280;67498;53.650;10.090;2023-12-04T09:15:14;101298.97;;;-1.48
78225;BMP280;67498;53.650;10.090;2023-12-04T09:17:39;101295.66;;;-1.48
78225;BMP280;67498;53.650;10.090;2023-12-04T09:20:04;101312.00;;;-1.35
78225;BMP280;67498;53.650;10.090;2023-12-04T09:22:31;101313.06;;;-1.36
78225;BMP280;67498;53.650;10.090;2023-12-04T09:24:56;101322.00;;;-1.34
78225;BMP280;67498;53.650;10.090;2023-12-04T09:27:22;101317.34;;;-1.32
78225;BMP280;67498;53.650;10.090;2023-12-04T09:29:47;101307.66;;;-1.35
78225;BMP280;67498;53.650;10.090;2023-12-04T09:32:12;101300.53;;;-1.38
78225;BMP280;67498;53.650;10.090;2023-12-04T09:34:38;101307.38;;;-1.33
78225;BMP280;67498;53.650;10.090;2023-12-04T09:37:03;101296.91;;;-1.37
78225;BMP280;67498;53.650;10.090;2023-12-04T09:39:29;101298.94;;;-1.34
78225;BMP280;67498;53.650;10.090;2023-12-04T09:41:55;101301.97;;;-1.32
78225;BMP280;67498;53.650;10.090;2023-12-04T09:44:22;101301.84;;;-1.26
78225;BMP280;67498;53.650;10.090;2023-12-04T09:46:50;101305.31;;;-1.22
78225;BMP280;67498;53.650;10.090;2023-12-04T09:49:16;101306.53;;;-1.20
78225;BMP280;67498;53.650;10.090;2023-12-04T09:51:43;101314.13;;;-1.15
78225;BMP280;67498;53.650;10.090;2023-12-04T09:54:09;101308.69;;;-1.13
78225;BMP280;67498;53.650;10.090;2023-12-04T09:56:34;101298.44;;;-1.13
78225;BMP280;67498;53.650;10.090;2023-12-04T09:59:00;101289.84;;;-1.17
78225;BMP280;67498;53.650;10.090;2023-12-04T10:01:29;101285.63;;;-1.13
78225;BMP280;67498;53.650;10.090;2023-12-04T10:03:56;101293.09;;;-1.03
78225;BMP280;67498;53.650;10.090;2023-12-04T10:06:23;101289.00;;;-1.04
78225;BMP280;67498;53.650;10.090;2023-12-04T10:08:51;101271.34;;;-1.06
78225;BMP280;67498;53.650;10.090;2023-12-04T10:11:17;101274.84;;;-1.01
78225;BMP280;67498;53.650;10.090;2023-12-04T10:13:42;101270.53;;;-0.92
78225;BMP280;67498;53.650;10.090;2023-12-04T10:16:07;101266.00;;;-0.87
78225;BMP280;67498;53.650;10.090;2023-12-04T10:18:33;101263.31;;;-0.81
78225;BMP280;67498;53.650;10.090;2023-12-04T10:20:59;101258.84;;;-0.76
78225;BMP280;67498;53.650;10.090;2023-12-04T10:23:38;101258.09;;;-0.76
78225;BMP280;67498;53.650;10.090;2023-12-04T10:26:04;101261.53;;;-0.72
78225;BMP280;67498;53.650;10.090;2023-12-04T10:28:29;101252.97;;;-0.68
78225;BMP280;67498;53.650;10.090;2023-12-04T10:30:55;101250.13;;;-0.66
78225;BMP280;67498;53.650;10.090;2023-12-04T10:33:20;101232.78;;;-0.69
78225;BMP280;67498;53.650;10.090;2023-12-04T10:35:46;101237.75;;;-0.55
78225;BMP280;67498;53.650;10.090;2023-12-04T10:38:12;101242.59;;;-0.54
78225;BMP280;67498;53.650;10.090;2023-12-04T10:40:39;101239.28;;;-0.54
78225;BMP280;67498;53.650;10.090;2023-12-04T10:43:17;101231.75;;;-0.59
78225;BMP280;67498;53.650;10.090;2023-12-04T10:45:44;101237.47;;;-0.54
78225;BMP280;67498;53.650;10.090;2023-12-04T10:48:11;101237.31;;;-0.57
78225;BMP280;67498;53.650;10.090;2023-12-04T10:50:38;101230.84;;;-0.55
78225;BMP280;67498;53.650;10.090;2023-12-04T10:53:07;101236.13;;;-0.51
78225;BMP280;67498;53.650;10.090;2023-12-04T10:55:33;101232.34;;;-0.54
78225;BMP280;67498;53.650;10.090;2023-12-04T10:58:04;101217.09;;;-0.59
78225;BMP280;67498;53.650;10.090;2023-12-04T11:00:32;101223.91;;;-0.54
78225;BMP280;67498;53.650;10.090;2023-12-04T11:03:03;101217.41;;;-0.60
78225;BMP280;67498;53.650;10.090;2023-12-04T11:05:32;101223.31;;;-0.51
78225;BMP280;67498;53.650;10.090;2023-12-04T11:08:00;101223.31;;;-0.51
78225;BMP280;67498;53.650;10.090;2023-12-04T11:10:27;101212.44;;;-0.57
78225;BMP280;67498;53.650;10.090;2023-12-04T11:13:00;101198.84;;;-0.66
78225;BMP280;67498;53.650;10.090;2023-12-04T11:15:29;101215.75;;;-0.56
78225;BMP280;67498;53.650;10.090;2023-12-04T11:17:59;101211.06;;;-0.63
78225;BMP280;67498;53.650;10.090;2023-12-04T11:20:28;101205.97;;;-0.54
78225;BMP280;67498;53.650;10.090;2023-12-04T11:22:55;101205.34;;;-0.51
78225;BMP280;67498;53.650;10.090;2023-12-04T11:25:21;101197.06;;;-0.48
78225;BMP280;67498;53.650;10.090;2023-12-04T11:27:48;101197.22;;;-0.45
78225;BMP280;67498;53.650;10.090;2023-12-04T11:30:14;101193.00;;;-0.40
78225;BMP280;67498;53.650;10.090;2023-12-04T11:32:45;101193.91;;;-0.36
78225;BMP280;67498;53.650;10.090;2023-12-04T11:35:17;101186.69;;;-0.43
78225;BMP280;67498;53.650;10.090;2023-12-04T11:37:46;101181.22;;;-0.42
78225;BMP280;67498;53.650;10.090;2023-12-04T11:40:14;101193.59;;;-0.35
78225;BMP280;67498;53.650;10.090;2023-12-04T11:42:41;101187.56;;;-0.39
78225;BMP280;67498;53.650;10.090;2023-12-04T11:45:06;101188.63;;;-0.40
78225;BMP280;67498;53.650;10.090;2023-12-04T11:47:51;101183.03;;;-0.42
78225;BMP280;67498;53.650;10.090;2023-12-04T11:50:20;101170.66;;;-0.49
78225;BMP280;67498;53.650;10.090;2023-12-04T11:52:46;101171.41;;;-0.48
78225;BMP280;67498;53.650;10.090;2023-12-04T11:55:11;101173.41;;;-0.45
78225;BMP280;67498;53.650;10.090;2023-12-04T11:57:38;101172.78;;;-0.42
78225;BMP280;67498;53.650;10.090;2023-12-04T12:00:20;101167.66;;;-0.42
78225;BMP280;67498;53.650;10.090;2023-12-04T12:05:18;101153.19;;;-0.47
78225;BMP280;67498;53.650;10.090;2023-12-04T12:07:44;101151.38;;;-0.46
78225;BMP280;67498;53.650;10.090;2023-12-04T12:10:11;101137.97;;;-0.43
78225;BMP280;67498;53.650;10.090;2023-12-04T12:12:41;101145.50;;;-0.38
78225;BMP280;67498;53.650;10.090;2023-12-04T12:15:10;101133.41;;;-0.37
78225;BMP280;67498;53.650;10.090;2023-12-04T12:17:40;101126.94;;;-0.35
78225;BMP280;67498;53.650;10.090;2023-12-04T12:20:10;101115.91;;;-0.44
78225;BMP280;67498;53.650;10.090;2023-12-04T12:22:37;101116.84;;;-0.40
78225;BMP280;67498;53.650;10.090;2023-12-04T12:25:07;101111.09;;;-0.46
78225;BMP280;67498;53.650;10.090;2023-12-04T12:27:33;101100.53;;;-0.44
78225;BMP280;67498;53.650;10.090;2023-12-04T12:29:58;101111.84;;;-0.36
78225;BMP280;67498;53.650;10.090;2023-12-04T12:32:24;101103.69;;;-0.38
78225;BMP280;67498;53.650;10.090;2023-12-04T12:34:51;101102.66;;;-0.46
78225;BMP280;67498;53.650;10.090;2023-12-04T12:37:16;101099.63;;;-0.48
78225;BMP280;67498;53.650;10.090;2023-12-04T12:39:42;101085.00;;;-0.56
78225;BMP280;67498;53.650;10.090;2023-12-04T12:42:07;101089.53;;;-0.45
78225;BMP280;67498;53.650;10.090;2023-12-04T12:44:40;101093.91;;;-0.45
78225;BMP280;67498;53.650;10.090;2023-12-04T12:47:06;101088.00;;;-0.46
78225;BMP280;67498;53.650;10.090;2023-12-04T12:49:34;101082.28;;;-0.43
78225;BMP280;67498;53.650;10.090;2023-12-04T12:52:02;101085.31;;;-0.40
78225;BMP280;67498;53.650;10.090;2023-12-04T12:54:30;101067.38;;;-0.40
78225;BMP280;67498;53.650;10.090;2023-12-04T12:56:58;101065.69;;;-0.36
78225;BMP280;67498;53.650;10.090;2023-12-04T12:59:24;101067.66;;;-0.42
78225;BMP280;67498;53.650;10.090;2023-12-04T13:01:49;101058.16;;;-0.42
78225;BMP280;67498;53.650;10.090;2023-12-04T13:04:15;101057.84;;;-0.40
78225;BMP280;67498;53.650;10.090;2023-12-04T13:06:40;101050.31;;;-0.45
78225;BMP280;67498;53.650;10.090;2023-12-04T13:09:06;101062.97;;;-0.40
78225;BMP280;67498;53.650;10.090;2023-12-04T13:11:32;101047.75;;;-0.45
78225;BMP280;67498;53.650;10.090;2023-12-04T13:13:57;101052.09;;;-0.37
78225;BMP280;67498;53.650;10.090;2023-12-04T13:16:22;101047.88;;;-0.42
78225;BMP280;67498;53.650;10.090;2023-12-04T13:18:48;101040.06;;;-0.45
78225;BMP280;67498;53.650;10.090;2023-12-04T13:21:13;101046.97;;;-0.37
78225;BMP280;67498;53.650;10.090;2023-12-04T13:23:38;101052.56;;;-0.35
78225;BMP280;67498;53.650;10.090;2023-12-04T13:26:03;101036.13;;;-0.43
78225;BMP280;67498;53.650;10.090;2023-12-04T13:28:29;101048.34;;;-0.39
78225;BMP280;67498;53.650;10.090;2023-12-04T13:30:55;101025.28;;;-0.48
78225;BMP280;67498;53.650;10.090;2023-12-04T13:33:20;101032.97;;;-0.39
78225;BMP280;67498;53.650;10.090;2023-12-04T13:35:59;101024.69;;;-0.45
78225;BMP280;67498;53.650;10.090;2023-12-04T13:38:24;101019.06;;;-0.38
78225;BMP280;67498;53.650;10.090;2023-12-04T13:40:50;101014.38;;;-0.36